Time;durP1;ratioP1;P1;durP2;ratioP2;P2;SDS_P1;SDS_P2;PMS_P1;PMS_P2;Temp;Humidity;BMP_temperature;BMP_pressure;BME280_temperature;BME280_humidity;BME280_pressure;Samples;Min_cycle;Max_cycle;Signal;HPM_P1;HPM_P2
2021/07/13 00:00:16;;;;;;;;;;;;;;;18.48;99.84;95117.13;1048964;28;19912;-48
2021/07/13 00:00:46;;;;;;;;;;;;;;;18.49;99.95;95123.25;1053204;28;20245;-48
2021/07/13 00:01:17;;;;;;;;;;;;;;;18.49;100.00;95117.91;1053314;28;19912;-49
2021/07/13 00:01:47;;;;;;;;;;;;;;;18.51;100.00;95118.44;1053290;28;20353;-50
2021/07/13 00:02:17;;;;;;;;;;;;;;;18.49;99.70;95113.38;1053660;28;19992;-48
2021/07/13 00:02:47;;;;;;;;;;;;;;;18.44;100.00;95118.72;1053682;28;19912;-48
2021/07/13 00:03:18;;;;;;;;;;;;;;;18.40;100.00;95125.66;1053661;28;20349;-48
2021/07/13 00:03:48;;;;;;;;;;;;;;;18.37;100.00;95121.69;1061787;27;19924;-48
2021/07/13 00:04:18;;;;;;;;;;;;;;;18.31;100.00;95112.09;1061804;27;19907;-48
2021/07/13 00:04:49;;;;;;;;;;;;;;;18.34;100.00;95116.06;1062019;27;20010;-48
2021/07/13 00:05:19;;;;;;;;;;;;;;;18.31;100.00;95119.28;1061635;27;20010;-48
2021/07/13 00:05:50;;;;;;;;;;;;;;;18.33;100.00;95109.97;1053591;28;19919;-48
2021/07/13 00:06:21;;;;;;;;;;;;;;;18.34;99.98;95116.88;1061907;27;19939;-47
2021/07/13 00:06:51;;;;;;;;;;;;;;;18.31;99.58;95111.28;1062246;27;19912;-47
2021/07/13 00:07:21;;;;;;;;;;;;;;;18.35;99.77;95118.47;1061756;27;19918;-47
2021/07/13 00:07:52;;;;;;;;;;;;;;;18.38;99.50;95122.47;1061757;27;19941;-48
2021/07/13 00:08:22;;;;;;;;;;;;;;;18.36;98.72;95120.06;1053693;28;19912;-49
2021/07/13 00:08:52;;;;;;;;;;;;;;;18.37;98.42;95121.69;1053618;28;19980;-49
2021/07/13 00:09:22;;;;;;;;;;;;;;;18.35;99.47;95115.81;1053634;28;19916;-48
2021/07/13 00:09:53;;;;;;;;;;;;;;;18.36;99.65;95112.09;1053234;28;19932;-48
2021/07/13 00:10:24;;;;;;;;;;;;;;;18.42;99.23;95118.22;1053615;28;19964;-48
2021/07/13 00:10:54;;;;;;;;;;;;;;;18.41;99.30;95120.06;1053296;28;19939;-48
2021/07/13 00:11:24;;;;;;;;;;;;;;;18.38;100.00;95125.13;1053203;28;19931;-48
2021/07/13 00:11:56;;;;;;;;;;;;;;;18.36;100.00;95122.75;1053442;28;19969;-48
2021/07/13 00:12:26;;;;;;;;;;;;;;;18.34;99.33;95127.56;1053272;28;19918;-48
2021/07/13 00:12:57;;;;;;;;;;;;;;;18.38;99.96;95128.59;1053640;28;19908;-48
2021/07/13 00:13:27;;;;;;;;;;;;;;;18.38;100.00;95135.78;1053531;28;19912;-49
2021/07/13 00:13:58;;;;;;;;;;;;;;;18.35;100.00;95131.78;1053630;28;19944;-48
2021/07/13 00:14:28;;;;;;;;;;;;;;;18.36;100.00;95133.41;1053482;28;19904;-49
2021/07/13 00:14:58;;;;;;;;;;;;;;;18.39;100.00;95138.19;1053739;28;19958;-48
2021/07/13 00:15:38;;;;;;;;;;;;;;;18.35;100.00;95137.13;1053939;28;19913;-49
2021/07/13 00:16:10;;;;;;;;;;;;;;;18.31;100.00;95138.75;1053601;28;19912;-48
2021/07/13 00:16:40;;;;;;;;;;;;;;;18.24;100.00;95136.34;1053819;28;20376;-51
2021/07/13 00:17:10;;;;;;;;;;;;;;;18.24;100.00;95144.31;1053586;28;19938;-49
2021/07/13 00:17:41;;;;;;;;;;;;;;;18.22;100.00;95145.66;1053761;28;20310;-49
2021/07/13 00:18:11;;;;;;;;;;;;;;;18.22;100.00;95150.97;1053791;28;19919;-48
2021/07/13 00:18:41;;;;;;;;;;;;;;;18.20;100.00;95156.56;1053935;28;19908;-48
2021/07/13 00:19:12;;;;;;;;;;;;;;;18.19;100.00;95160.31;1053721;28;19924;-48
2021/07/13 00:19:42;;;;;;;;;;;;;;;18.19;100.00;95157.66;1053716;28;20371;-52
2021/07/13 00:20:12;;;;;;;;;;;;;;;18.24;100.00;95154.19;1053616;28;19908;-49
2021/07/13 00:20:42;;;;;;;;;;;;;;;18.29;100.00;95159.50;1053338;28;20276;-48
2021/07/13 00:21:13;;;;;;;;;;;;;;;18.31;100.00;95164.56;1053487;28;19912;-48
2021/07/13 00:21:43;;;;;;;;;;;;;;;18.32;100.00;95161.63;1053642;28;19908;-48
2021/07/13 00:22:13;;;;;;;;;;;;;;;18.33;100.00;95163.25;1053575;28;20098;-48
2021/07/13 00:22:44;;;;;;;;;;;;;;;18.31;100.00;95170.72;1053575;28;19912;-49
2021/07/13 00:23:14;;;;;;;;;;;;;;;18.33;100.00;95170.44;1053549;28;19912;-50
2021/07/13 00:23:44;;;;;;;;;;;;;;;18.35;100.00;95168.31;1053591;28;19912;-52
2021/07/13 00:24:14;;;;;;;;;;;;;;;18.33;100.00;95159.78;1053436;28;20289;-49
2021/07/13 00:24:45;;;;;;;;;;;;;;;18.31;100.00;95156.59;1053535;28;19912;-48
2021/07/13 00:25:15;;;;;;;;;;;;;;;18.31;100.00;95162.72;1053186;28;19916;-48
2021/07/13 00:25:45;;;;;;;;;;;;;;;18.31;100.00;95160.06;1053074;28;19912;-52
2021/07/13 00:26:16;;;;;;;;;;;;;;;18.27;100.00;95162.44;1053417;28;20333;-48
2021/07/13 00:26:46;;;;;;;;;;;;;;;18.25;100.00;95167.25;1053404;28;19976;-49
2021/07/13 00:27:17;;;;;;;;;;;;;;;18.32;100.00;95158.19;1053580;28;19927;-51
2021/07/13 00:27:47;;;;;;;;;;;;;;;18.31;100.00;95157.41;1053581;28;19927;-52
2021/07/13 00:28:17;;;;;;;;;;;;;;;18.34;100.00;95151.53;1053309;28;19947;-49
2021/07/13 00:28:48;;;;;;;;;;;;;;;18.36;100.00;95152.06;1053326;28;19998;-48
2021/07/13 00:29:18;;;;;;;;;;;;;;;18.33;100.00;95157.91;1053146;28;19907;-49
2021/07/13 00:29:48;;;;;;;;;;;;;;;18.32;100.00;95155.53;1053293;28;19911;-49
2021/07/13 00:30:19;;;;;;;;;;;;;;;18.34;100.00;95153.38;1053573;28;19911;-50
2021/07/13 00:30:49;;;;;;;;;;;;;;;18.34;100.00;95156.88;1053838;28;19973;-49
2021/07/13 00:31:19;;;;;;;;;;;;;;;18.32;100.00;95156.31;1053494;28;20323;-50
2021/07/13 00:31:50;;;;;;;;;;;;;;;18.34;100.00;95151.53;1053510;28;19904;-50
2021/07/13 00:32:20;;;;;;;;;;;;;;;18.31;100.00;95154.72;1053324;28;19977;-53
2021/07/13 00:32:50;;;;;;;;;;;;;;;18.31;100.00;95154.72;1053546;28;19908;-53
2021/07/13 00:33:21;;;;;;;;;;;;;;;18.33;100.00;95152.59;1053345;28;19905;-48
2021/07/13 00:33:51;;;;;;;;;;;;;;;18.27;100.00;95148.34;1053687;28;19915;-49
2021/07/13 00:34:21;;;;;;;;;;;;;;;18.25;100.00;95156.59;1053474;28;19953;-48
2021/07/13 00:34:52;;;;;;;;;;;;;;;18.24;100.00;95154.19;1053625;28;19999;-51
2021/07/13 00:35:22;;;;;;;;;;;;;;;18.23;100.00;95166.69;1053495;28;20382;-51
2021/07/13 00:35:52;;;;;;;;;;;;;;;18.20;100.00;95161.13;1053636;28;20378;-49
2021/07/13 00:36:22;;;;;;;;;;;;;;;18.23;100.00;95164.03;1053572;28;19908;-51
2021/07/13 00:36:53;;;;;;;;;;;;;;;18.24;100.00;95164.84;1053192;28;19904;-50
2021/07/13 00:37:23;;;;;;;;;;;;;;;18.22;100.00;95166.97;1048844;28;19921;-52
2021/07/13 00:37:54;;;;;;;;;;;;;;;18.27;100.00;95164.31;1044751;28;19909;-49
2021/07/13 00:38:24;;;;;;;;;;;;;;;18.27;100.00;95178.44;1044962;28;19909;-53
2021/07/13 00:38:54;;;;;;;;;;;;;;;18.31;100.00;95176.06;1049179;28;19985;-51
2021/07/13 00:39:25;;;;;;;;;;;;;;;18.23;100.00;95179.22;1053259;28;19908;-51
2021/07/13 00:39:55;;;;;;;;;;;;;;;18.16;100.00;95176.84;1053532;28;19908;-48
2021/07/13 00:40:25;;;;;;;;;;;;;;;18.17;100.00;95177.63;1053661;28;19953;-48
2021/07/13 00:40:55;;;;;;;;;;;;;;;18.11;100.00;95176.81;1053205;28;19987;-49
2021/07/13 00:41:26;;;;;;;;;;;;;;;18.15;100.00;95182.44;1048950;28;19959;-49
2021/07/13 00:41:56;;;;;;;;;;;;;;;18.11;100.00;95180.31;1048751;28;19943;-49
2021/07/13 00:42:26;;;;;;;;;;;;;;;18.11;100.00;95185.63;1048976;28;19908;-49
2021/07/13 00:42:57;;;;;;;;;;;;;;;18.09;100.00;95182.41;1053292;28;19908;-49
2021/07/13 00:43:27;;;;;;;;;;;;;;;18.13;100.00;95184.53;1053491;28;19940;-49
2021/07/13 00:43:57;;;;;;;;;;;;;;;18.10;100.00;95181.38;1053567;28;19914;-53
2021/07/13 00:44:28;;;;;;;;;;;;;;;18.07;100.00;95181.09;1053358;28;19908;-49
2021/07/13 00:44:58;;;;;;;;;;;;;;;18.08;100.00;95188.00;1053621;28;19954;-49
2021/07/13 00:45:29;;;;;;;;;;;;;;;18.14;100.00;95173.63;1053608;28;20310;-50
2021/07/13 00:45:59;;;;;;;;;;;;;;;18.14;100.00;95175.50;1053477;28;19973;-51
2021/07/13 00:46:29;;;;;;;;;;;;;;;18.10;100.00;95178.69;1053531;28;19915;-49
2021/07/13 00:47:00;;;;;;;;;;;;;;;18.09;100.00;95174.44;1053133;28;19915;-51
2021/07/13 00:47:30;;;;;;;;;;;;;;;18.08;100.00;95177.34;1053109;28;19916;-49
2021/07/13 00:48:00;;;;;;;;;;;;;;;18.07;100.00;95176.56;1053161;28;19977;-50
2021/07/13 00:48:31;;;;;;;;;;;;;;;18.08;100.00;95172.03;1048934;28;19915;-50
2021/07/13 00:49:03;;;;;;;;;;;;;;;18.06;100.00;95171.50;1053288;28;19915;-50
2021/07/13 00:49:33;;;;;;;;;;;;;;;18.04;100.00;95163.78;1057152;28;19916;-51
2021/07/13 00:50:04;;;;;;;;;;;;;;;18.06;100.00;95161.63;1057666;27;19908;-47
2021/07/13 00:50:34;;;;;;;;;;;;;;;18.07;100.00;95163.25;1061024;27;20438;-48
2021/07/13 00:51:05;;;;;;;;;;;;;;;18.06;100.00;95156.31;1053485;28;19915;-51
2021/07/13 00:51:35;;;;;;;;;;;;;;;18.08;100.00;95158.72;1053590;28;19904;-51
2021/07/13 00:52:06;;;;;;;;;;;;;;;18.16;100.00;95158.19;1053433;28;19912;-47
2021/07/13 00:52:36;;;;;;;;;;;;;;;18.13;100.00;95153.41;1053109;28;19908;-49
2021/07/13 00:53:06;;;;;;;;;;;;;;;18.15;100.00;95150.47;1053195;28;20008;-50
2021/07/13 00:53:38;;;;;;;;;;;;;;;18.08;100.00;95154.19;1053199;28;19912;-50
2021/07/13 00:54:09;;;;;;;;;;;;;;;18.04;100.00;95153.13;1053185;28;19939;-48
2021/07/13 00:54:40;;;;;;;;;;;;;;;18.01;100.00;95150.22;1053366;28;19912;-48
2021/07/13 00:55:11;;;;;;;;;;;;;;;18.02;100.00;95152.59;1053491;28;19955;-48
2021/07/13 00:55:41;;;;;;;;;;;;;;;18.04;100.00;95145.13;1053492;28;19907;-49
2021/07/13 00:56:11;;;;;;;;;;;;;;;18.06;100.00;95147.53;1053489;28;19912;-51
2021/07/13 00:56:42;;;;;;;;;;;;;;;18.07;100.00;95147.25;1053494;28;19988;-51
2021/07/13 00:57:12;;;;;;;;;;;;;;;18.05;100.00;95149.41;1053397;28;19919;-49
2021/07/13 00:57:43;;;;;;;;;;;;;;;18.02;100.00;95141.94;1053364;28;20260;-49
2021/07/13 00:58:13;;;;;;;;;;;;;;;18.04;100.00;95139.81;1053443;28;19962;-50
2021/07/13 00:58:43;;;;;;;;;;;;;;;18.01;100.00;95144.88;1053502;28;19935;-50
2021/07/13 00:59:14;;;;;;;;;;;;;;;18.04;100.00;95139.03;1053387;28;20339;-51
2021/07/13 00:59:44;;;;;;;;;;;;;;;18.02;100.00;95136.63;1053109;28;19919;-50
2021/07/13 01:00:15;;;;;;;;;;;;;;;18.03;100.00;95138.19;1053502;28;19995;-49
2021/07/13 01:00:45;;;;;;;;;;;;;;;18.05;100.00;95135.28;1048824;28;19966;-48
2021/07/13 01:01:15;;;;;;;;;;;;;;;18.03;99.17;95132.09;1048844;28;19947;-50
2021/07/13 01:01:47;;;;;;;;;;;;;;;18.00;100.00;95136.06;1048966;28;19912;-51
2021/07/13 01:02:17;;;;;;;;;;;;;;;18.06;100.00;95129.69;1049155;28;19912;-49
2021/07/13 01:02:48;;;;;;;;;;;;;;;18.05;100.00;95128.09;1053428;28;19909;-49
2021/07/13 01:03:18;;;;;;;;;;;;;;;18.05;100.00;95129.94;1052995;28;20289;-48
2021/07/13 01:03:49;;;;;;;;;;;;;;;18.04;100.00;95125.72;1052916;28;19916;-50
2021/07/13 01:04:19;;;;;;;;;;;;;;;18.03;100.00;95129.44;1052869;28;19954;-52
2021/07/13 01:04:50;;;;;;;;;;;;;;;17.99;99.34;95126.50;1052992;28;20288;-52
2021/07/13 01:05:21;;;;;;;;;;;;;;;18.02;100.00;95131.28;1053064;28;20358;-50
2021/07/13 01:05:52;;;;;;;;;;;;;;;18.01;100.00;95126.25;1052915;28;19924;-51
2021/07/13 01:06:22;;;;;;;;;;;;;;;18.02;100.00;95127.81;1053357;28;19951;-49
2021/07/13 01:06:55;;;;;;;;;;;;;;;18.06;100.00;95132.34;1053361;28;19927;-49
2021/07/13 01:07:25;;;;;;;;;;;;;;;18.04;99.23;95137.16;1053332;28;20007;-50
2021/07/13 01:08:19;;;;;;;;;;;;;;;18.08;98.91;95130.22;1053256;28;19908;-51
2021/07/13 01:08:55;;;;;;;;;;;;;;;18.08;98.17;95134.75;1052916;28;19915;-49
2021/07/13 01:09:37;;;;;;;;;;;;;;;18.07;98.94;95128.63;1052946;28;20010;-49
2021/07/13 01:10:11;;;;;;;;;;;;;;;18.07;100.00;95135.81;1052909;28;19912;-49
2021/07/13 01:11:02;;;;;;;;;;;;;;;18.05;100.00;95140.59;1051276;28;20287;-49
2021/07/13 01:11:48;;;;;;;;;;;;;;;18.05;99.74;95138.75;1048820;28;19914;-49
2021/07/13 01:12:23;;;;;;;;;;;;;;;18.07;97.70;95141.16;1049700;28;19940;-50
2021/07/13 01:13:02;;;;;;;;;;;;;;;18.09;96.78;95139.00;1053026;28;19916;-50
2021/07/13 01:13:33;;;;;;;;;;;;;;;18.10;99.74;95145.94;1052971;28;19919;-49
2021/07/13 01:14:06;;;;;;;;;;;;;;;18.11;100.00;95145.69;1053219;28;19998;-49
2021/07/13 01:14:41;;;;;;;;;;;;;;;18.11;99.10;95145.69;1058977;27;19904;-49
2021/07/13 01:15:12;;;;;;;;;;;;;;;18.14;98.88;95148.88;1057288;28;19960;-48
2021/07/13 01:15:46;;;;;;;;;;;;;;;18.15;98.38;95145.94;1057328;28;19912;-48
2021/07/13 01:16:33;;;;;;;;;;;;;;;18.18;99.43;95155.25;1051762;28;19908;-48
2021/07/13 01:17:10;;;;;;;;;;;;;;;18.19;99.94;95170.97;1055863;28;19950;-51
2021/07/13 01:17:43;;;;;;;;;;;;;;;18.22;98.37;95165.13;1052962;28;19915;-51
2021/07/13 01:18:18;;;;;;;;;;;;;;;18.25;96.25;95166.44;1056776;28;19927;-48
2021/07/13 01:18:54;;;;;;;;;;;;;;;18.31;95.19;95172.56;1046815;28;19992;-48
2021/07/13 01:19:37;;;;;;;;;;;;;;;18.29;96.39;95178.16;1046559;28;19917;-48
2021/07/13 01:20:10;;;;;;;;;;;;;;;18.34;95.99;95177.34;1048908;28;19947;-49
2021/07/13 01:20:55;;;;;;;;;;;;;;;18.36;96.09;95183.25;1052193;28;20249;-48
2021/07/13 01:21:25;;;;;;;;;;;;;;;18.37;94.21;95190.97;1052613;28;19920;-49
2021/07/13 01:21:58;;;;;;;;;;;;;;;18.39;95.34;95196.03;1053178;28;19904;-49
2021/07/13 01:22:31;;;;;;;;;;;;;;;18.39;95.15;95196.03;1048826;28;19909;-53
2021/07/13 01:23:21;;;;;;;;;;;;;;;18.36;96.25;95197.34;1045413;28;19905;-49
2021/07/13 01:23:54;;;;;;;;;;;;;;;18.35;96.30;95201.06;1040432;28;19928;-49
2021/07/13 01:24:30;;;;;;;;;;;;;;;18.34;96.34;95206.66;1043547;28;20007;-48
2021/07/13 01:25:16;;;;;;;;;;;;;;;18.33;97.53;95205.88;1052219;28;19956;-48
2021/07/13 01:26:05;;;;;;;;;;;;;;;18.26;98.80;95210.66;1052958;28;19904;-49
2021/07/13 01:26:36;;;;;;;;;;;;;;;18.20;99.74;95219.72;1052984;28;20309;-49
2021/07/13 01:27:29;;;;;;;;;;;;;;;18.18;100.00;95219.19;1053082;28;19960;-48
2021/07/13 01:27:59;;;;;;;;;;;;;;;18.10;100.00;95216.00;1044618;28;19912;-49
2021/07/13 01:28:32;;;;;;;;;;;;;;;18.11;100.00;95225.59;1044521;28;19912;-50
2021/07/13 01:29:04;;;;;;;;;;;;;;;18.09;100.00;95222.38;1059346;27;19963;-48
2021/07/13 01:29:35;;;;;;;;;;;;;;;18.05;100.00;95226.66;1061421;27;19915;-48
2021/07/13 01:30:07;;;;;;;;;;;;;;;18.05;100.00;95228.50;1057295;28;20014;-49
2021/07/13 01:30:40;;;;;;;;;;;;;;;17.99;100.00;95226.88;1044067;28;19909;-49
2021/07/13 01:31:14;;;;;;;;;;;;;;;17.96;100.00;95228.19;1044714;28;19909;-49
2021/07/13 01:31:44;;;;;;;;;;;;;;;17.98;100.00;95222.66;1045587;28;19980;-51
2021/07/13 01:32:17;;;;;;;;;;;;;;;17.96;100.00;95222.09;1043512;28;19916;-49
2021/07/13 01:32:48;;;;;;;;;;;;;;;17.86;100.00;95217.53;1047997;28;19916;-49
2021/07/13 01:33:22;;;;;;;;;;;;;;;17.86;100.00;95220.19;1048800;28;19908;-49
2021/07/13 01:33:53;;;;;;;;;;;;;;;17.87;100.00;95214.59;1049924;28;19912;-48
2021/07/13 01:34:24;;;;;;;;;;;;;;;17.91;100.00;95215.69;1053629;28;19939;-49
2021/07/13 01:35:04;;;;;;;;;;;;;;;17.91;100.00;95209.56;1052401;28;20090;-48
2021/07/13 01:35:36;;;;;;;;;;;;;;;17.94;100.00;95198.38;1053140;28;19904;-48
2021/07/13 01:36:11;;;;;;;;;;;;;;;17.93;100.00;95196.78;1048783;28;19972;-48
2021/07/13 01:36:52;;;;;;;;;;;;;;;17.94;100.00;95190.41;1046913;28;19911;-48
2021/07/13 01:37:22;;;;;;;;;;;;;;;17.91;100.00;95177.63;1042380;28;19950;-48
2021/07/13 01:37:53;;;;;;;;;;;;;;;17.92;100.00;95179.22;1044674;28;19967;-48
2021/07/13 01:38:24;;;;;;;;;;;;;;;17.94;100.00;95167.22;1050256;28;19904;-48
2021/07/13 01:38:55;;;;;;;;;;;;;;;17.93;100.00;95159.50;1053236;28;19904;-48
2021/07/13 01:39:25;;;;;;;;;;;;;;;17.89;100.00;95155.78;1056731;28;20384;-48
2021/07/13 01:39:55;;;;;;;;;;;;;;;17.87;100.00;95147.22;1052941;28;19908;-48
2021/07/13 01:40:26;;;;;;;;;;;;;;;17.86;100.00;95137.66;1048921;28;20046;-47
2021/07/13 01:40:58;;;;;;;;;;;;;;;17.87;100.00;95131.25;1048908;28;20483;-47
2021/07/13 01:41:28;;;;;;;;;;;;;;;17.85;100.00;95120.06;1057138;28;19904;-47
2021/07/13 01:42:01;;;;;;;;;;;;;;;17.85;100.00;95109.41;1057595;28;19900;-47
2021/07/13 01:42:31;;;;;;;;;;;;;;;17.79;100.00;95100.63;1061414;27;19899;-48
2021/07/13 01:43:01;;;;;;;;;;;;;;;17.79;100.00;95083.84;1056773;28;19962;-48
2021/07/13 01:43:33;;;;;;;;;;;;;;;17.77;100.00;95074.25;1052770;28;19996;-48
2021/07/13 01:44:04;;;;;;;;;;;;;;;17.80;100.00;95058.84;1052911;28;19904;-50
2021/07/13 01:44:34;;;;;;;;;;;;;;;17.79;100.00;95050.03;1048627;28;19905;-49
2021/07/13 01:45:05;;;;;;;;;;;;;;;17.72;100.00;95042.31;1048746;28;20391;-48
2021/07/13 01:45:36;;;;;;;;;;;;;;;17.71;100.00;95038.06;1048920;28;19900;-48
2021/07/13 01:46:07;;;;;;;;;;;;;;;17.72;100.00;95030.88;1048975;28;20384;-49
2021/07/13 01:46:37;;;;;;;;;;;;;;;17.68;100.00;95022.63;1048832;28;19904;-49
2021/07/13 01:47:08;;;;;;;;;;;;;;;17.68;100.00;95022.63;1044614;28;20373;-49
2021/07/13 01:47:38;;;;;;;;;;;;;;;17.75;100.00;95028.47;1040547;28;19901;-49
2021/07/13 01:48:12;;;;;;;;;;;;;;;17.76;100.00;95029.28;1040508;28;19988;-48
2021/07/13 01:48:42;;;;;;;;;;;;;;;17.74;100.00;95029.53;1045130;28;19992;-50
2021/07/13 01:49:16;;;;;;;;;;;;;;;17.73;100.00;95027.97;1048696;28;19969;-48
2021/07/13 01:49:47;;;;;;;;;;;;;;;17.73;100.00;95030.63;1050233;28;19931;-47
2021/07/13 01:50:17;;;;;;;;;;;;;;;17.74;100.00;95034.06;1052838;28;19904;-47
2021/07/13 01:50:50;;;;;;;;;;;;;;;17.72;100.00;95031.69;1052986;28;20339;-47
2021/07/13 01:51:20;;;;;;;;;;;;;;;17.72;100.00;95030.88;1049604;28;19908;-48
2021/07/13 01:51:51;;;;;;;;;;;;;;;17.68;100.00;95032.47;1052987;28;19998;-47
2021/07/13 01:52:21;;;;;;;;;;;;;;;17.68;100.00;95035.13;1048680;28;19909;-48
2021/07/13 01:52:51;;;;;;;;;;;;;;;17.69;100.00;95042.06;1053345;28;20443;-47
2021/07/13 01:53:22;;;;;;;;;;;;;;;17.67;100.00;95038.84;1057127;28;19904;-47
2021/07/13 01:53:52;;;;;;;;;;;;;;;17.68;100.00;95041.25;1057215;28;19908;-47
2021/07/13 01:54:24;;;;;;;;;;;;;;;17.72;100.00;95044.19;1052759;28;19908;-48
2021/07/13 01:54:55;;;;;;;;;;;;;;;17.71;100.00;95048.72;1048756;28;19915;-48
2021/07/13 01:55:25;;;;;;;;;;;;;;;17.75;100.00;95049.00;1048723;28;19909;-48
2021/07/13 01:55:55;;;;;;;;;;;;;;;17.76;100.00;95056.72;1044378;28;19928;-47
2021/07/13 01:56:28;;;;;;;;;;;;;;;17.77;100.00;95055.63;1044600;28;19917;-48
2021/07/13 01:56:58;;;;;;;;;;;;;;;17.81;100.00;95071.06;1044814;28;19908;-48
2021/07/13 01:57:29;;;;;;;;;;;;;;;17.82;100.00;95073.47;1049204;28;20387;-47
2021/07/13 01:57:59;;;;;;;;;;;;;;;17.84;100.00;95070.53;1052991;28;19908;-48
2021/07/13 01:58:29;;;;;;;;;;;;;;;17.87;100.00;95086.78;1053066;28;20237;-48
2021/07/13 01:59:00;;;;;;;;;;;;;;;17.94;100.00;95083.88;1053190;28;20379;-48
2021/07/13 01:59:30;;;;;;;;;;;;;;;17.96;100.00;95084.41;1052927;28;19991;-47
2021/07/13 02:00:01;;;;;;;;;;;;;;;17.97;100.00;95091.34;1048612;28;19912;-47
2021/07/13 02:00:31;;;;;;;;;;;;;;;17.99;100.00;95107.03;1047295;28;19912;-48
2021/07/13 02:01:04;;;;;;;;;;;;;;;17.90;100.00;95106.78;1048939;28;19908;-48
2021/07/13 02:01:35;;;;;;;;;;;;;;;17.92;100.00;95113.44;1048828;28;19908;-48
2021/07/13 02:02:05;;;;;;;;;;;;;;;17.94;100.00;95115.84;1049095;28;19916;-48
2021/07/13 02:02:35;;;;;;;;;;;;;;;17.98;100.00;95113.47;1048734;28;19961;-49
2021/07/13 02:03:06;;;;;;;;;;;;;;;18.01;100.00;95124.38;1048803;28;20380;-48
2021/07/13 02:03:36;;;;;;;;;;;;;;;17.99;100.00;95126.50;1048753;28;20482;-48
2021/07/13 02:04:06;;;;;;;;;;;;;;;18.04;100.00;95131.03;1048711;28;19916;-49
2021/07/13 02:04:36;;;;;;;;;;;;;;;18.05;98.36;95133.44;1052827;28;20353;-49
2021/07/13 02:05:07;;;;;;;;;;;;;;;18.08;99.05;95134.75;1052914;28;19915;-50
2021/07/13 02:05:38;;;;;;;;;;;;;;;18.08;100.00;95132.91;1052918;28;20432;-49
2021/07/13 02:06:08;;;;;;;;;;;;;;;18.07;100.00;95133.94;1048562;28;20389;-49
2021/07/13 02:06:40;;;;;;;;;;;;;;;18.01;100.00;95126.25;1048940;28;20479;-48
2021/07/13 02:07:11;;;;;;;;;;;;;;;17.97;100.00;95123.28;1052974;28;19909;-49
2021/07/13 02:07:42;;;;;;;;;;;;;;;17.94;100.00;95121.16;1053375;28;20463;-48
2021/07/13 02:08:12;;;;;;;;;;;;;;;17.91;100.00;95124.34;1056706;28;19911;-49
2021/07/13 02:08:43;;;;;;;;;;;;;;;17.91;100.00;95117.16;1044505;28;19908;-48
2021/07/13 02:09:13;;;;;;;;;;;;;;;17.91;100.00;95114.50;1040457;28;19909;-48
2021/07/13 02:09:44;;;;;;;;;;;;;;;17.92;100.00;95118.75;1044615;28;20357;-49
2021/07/13 02:10:14;;;;;;;;;;;;;;;17.90;100.00;95126.22;1044739;28;19909;-49
2021/07/13 02:10:44;;;;;;;;;;;;;;;17.91;100.00;95122.47;1048603;28;19978;-49
2021/07/13 02:11:14;;;;;;;;;;;;;;;17.92;100.00;95126.75;1052461;28;20376;-49
2021/07/13 02:11:45;;;;;;;;;;;;;;;17.93;100.00;95116.88;1048729;28;19909;-49
2021/07/13 02:12:17;;;;;;;;;;;;;;;17.97;100.00;95115.31;1048756;28;19915;-48
2021/07/13 02:12:47;;;;;;;;;;;;;;;17.97;100.00;95107.31;1048702;28;19927;-48
2021/07/13 02:13:19;;;;;;;;;;;;;;;17.95;100.00;95112.13;1048807;28;20385;-49
2021/07/13 02:13:49;;;;;;;;;;;;;;;17.92;100.00;95115.31;1048686;28;20285;-49
2021/07/13 02:14:19;;;;;;;;;;;;;;;17.86;100.00;95106.47;1048770;28;19948;-48
2021/07/13 02:14:49;;;;;;;;;;;;;;;17.85;100.00;95106.75;1048665;28;19951;-48
2021/07/13 02:15:20;;;;;;;;;;;;;;;17.87;100.00;95107.28;1048801;28;20034;-49
2021/07/13 02:15:50;;;;;;;;;;;;;;;17.76;100.00;95101.16;1048737;28;19958;-49
2021/07/13 02:16:21;;;;;;;;;;;;;;;17.73;100.00;95107.00;1048674;28;19912;-48
2021/07/13 02:16:51;;;;;;;;;;;;;;;17.71;100.00;95109.16;1049077;28;19913;-48
2021/07/13 02:17:24;;;;;;;;;;;;;;;17.70;100.00;95103.03;1048567;28;19970;-49
2021/07/13 02:17:54;;;;;;;;;;;;;;;17.71;100.00;95104.59;1048767;28;19979;-49
2021/07/13 02:18:25;;;;;;;;;;;;;;;17.74;100.00;95097.97;1048622;28;20007;-48
2021/07/13 02:18:55;;;;;;;;;;;;;;;17.76;100.00;95101.16;1049067;28;19912;-49
2021/07/13 02:19:26;;;;;;;;;;;;;;;17.74;100.00;95100.63;1052806;28;19916;-49
2021/07/13 02:19:59;;;;;;;;;;;;;;;17.74;100.00;95090.75;1052709;28;19912;-49
2021/07/13 02:20:30;;;;;;;;;;;;;;;17.77;100.00;95098.22;1048955;28;20349;-49
2021/07/13 02:21:00;;;;;;;;;;;;;;;17.81;100.00;95089.69;1049000;28;19913;-49
2021/07/13 02:21:32;;;;;;;;;;;;;;;17.79;100.00;95089.19;1049117;28;19912;-49
2021/07/13 02:22:03;;;;;;;;;;;;;;;17.75;100.00;95097.69;1053161;28;19996;-50
2021/07/13 02:22:33;;;;;;;;;;;;;;;17.75;100.00;95092.38;1053150;28;20037;-49
2021/07/13 02:23:04;;;;;;;;;;;;;;;17.73;100.00;95089.19;1053057;28;20387;-49
2021/07/13 02:23:34;;;;;;;;;;;;;;;17.73;100.00;95086.53;1048605;28;19936;-48
2021/07/13 02:24:05;;;;;;;;;;;;;;;17.75;100.00;95092.38;1048641;28;19908;-50
2021/07/13 02:24:35;;;;;;;;;;;;;;;17.75;100.00;95092.38;1048457;28;19959;-49
2021/07/13 02:25:06;;;;;;;;;;;;;;;17.74;100.00;95093.44;1048610;28;19920;-49
2021/07/13 02:25:36;;;;;;;;;;;;;;;17.77;100.00;95089.44;1048574;28;20070;-49
2021/07/13 02:26:06;;;;;;;;;;;;;;;17.78;100.00;95085.72;1052721;28;20342;-50
2021/07/13 02:27:12;;;;;;;;;;;;;;;17.78;100.00;95083.06;1048827;28;19919;-49
2021/07/13 02:27:45;;;;;;;;;;;;;;;17.72;100.00;95084.91;1040202;28;19917;-49
2021/07/13 02:28:16;;;;;;;;;;;;;;;17.73;100.00;95080.38;1040307;28;19909;-48
2021/07/13 02:28:47;;;;;;;;;;;;;;;17.74;100.00;95077.44;1036126;28;19909;-49
2021/07/13 02:29:22;;;;;;;;;;;;;;;17.74;100.00;95079.31;1035829;28;19913;-50
2021/07/13 02:29:53;;;;;;;;;;;;;;;17.75;100.00;95075.63;1032256;28;19914;-49
2021/07/13 02:30:24;;;;;;;;;;;;;;;17.76;100.00;95072.69;1032794;28;19914;-49
2021/07/13 02:30:55;;;;;;;;;;;;;;;17.82;100.00;95078.00;1040401;28;19963;-49
2021/07/13 02:31:29;;;;;;;;;;;;;;;17.80;100.00;95077.47;1040390;28;19973;-50
2021/07/13 02:32:06;;;;;;;;;;;;;;;17.82;100.00;95083.31;1044474;28;19913;-48
2021/07/13 02:32:50;;;;;;;;;;;;;;;17.85;100.00;95086.25;1038714;28;19913;-49
2021/07/13 02:33:32;;;;;;;;;;;;;;;17.86;100.00;95087.06;1040030;28;19925;-50
2021/07/13 02:34:06;;;;;;;;;;;;;;;17.88;100.00;95084.91;1040307;28;20003;-50
2021/07/13 02:34:38;;;;;;;;;;;;;;;17.83;100.00;95084.94;1044111;28;19924;-49
2021/07/13 02:35:08;;;;;;;;;;;;;;;17.77;100.00;95078.78;1042095;28;19905;-49
2021/07/13 02:35:39;;;;;;;;;;;;;;;17.77;100.00;95086.78;1040288;28;19937;-49
2021/07/13 02:36:11;;;;;;;;;;;;;;;17.81;100.00;95082.53;1040217;28;20274;-48
2021/07/13 02:36:42;;;;;;;;;;;;;;;17.83;100.00;95079.59;1040156;28;19911;-49
2021/07/13 02:37:15;;;;;;;;;;;;;;;17.75;100.00;95075.63;1040160;28;20048;-49
2021/07/13 02:37:46;;;;;;;;;;;;;;;17.82;100.00;95078.78;1040345;28;19901;-49
2021/07/13 02:38:16;;;;;;;;;;;;;;;17.84;100.00;95073.19;1040204;28;19941;-49
2021/07/13 02:38:46;;;;;;;;;;;;;;;17.80;100.00;95080.94;1036374;28;20246;-49
2021/07/13 02:39:18;;;;;;;;;;;;;;;17.81;100.00;95077.22;1032067;28;19934;-49
2021/07/13 02:39:48;;;;;;;;;;;;;;;17.82;100.00;95070.78;1031751;28;19910;-49
2021/07/13 02:40:18;;;;;;;;;;;;;;;17.86;100.00;95077.19;1036715;28;19906;-49
2021/07/13 02:40:49;;;;;;;;;;;;;;;17.86;100.00;95071.88;1037088;28;19906;-48
2021/07/13 02:41:19;;;;;;;;;;;;;;;17.87;100.00;95077.97;1041140;28;19905;-49
2021/07/13 02:41:50;;;;;;;;;;;;;;;17.85;100.00;95070.25;1041104;28;19972;-50
2021/07/13 02:42:20;;;;;;;;;;;;;;;17.82;100.00;95072.66;1041080;28;19951;-49
2021/07/13 02:42:50;;;;;;;;;;;;;;;17.80;100.00;95078.25;1041154;28;19944;-49
2021/07/13 02:43:21;;;;;;;;;;;;;;;17.76;100.00;95072.69;1040975;28;19913;-49
2021/07/13 02:43:51;;;;;;;;;;;;;;;17.81;100.00;95066.56;1045225;28;20412;-49